• Join FlightAware (Why Join?)
  • Login
  • US Flag 
12:12AM EDT


 

Airport Tracker/Info


-or-


 

Live Flight TrackerFlight Track Log ✈ UAL495 ✈ 02-May-2013 ✈ KLAX - KDEN

Flight Track Log - Related Links

Times and Time Zones

All times are in EDT time to prevent confusion due to time zone crossing. See the UAL495 flight status page for this flight to view local times or setup timezone preferences in your user account.

Time Position Orientation Groundspeed Altitude Reporting Facility
EDT Latitude Longitude Course Direction KTS MPH feet Rate Location/Type
09:32AM 33.9256 -118.4533 90° East 201 231 1,800  Level Los Angeles Center
09:33AM 33.8781 -118.5114 225° Southwest 239 275 4,600 2,700 Climbing Los Angeles Center
09:35AM 33.7830 -118.6439 132° Southeast  Level FlightAware Approximate
09:35AM 33.8094 -118.5306 193° South 277 319 7,400  Level Los Angeles Center
09:36AM 33.7038 -118.5422 134° Southeast  Level FlightAware Approximate
09:36AM 33.7161 -118.5225 176° South 285 328 10,900  Level Los Angeles Center
09:37AM 33.6660 -118.4149 116° Southeast  Level FlightAware Approximate
09:37AM 33.6697 -118.4422 125° Southeast 316 364 12,800  Level Los Angeles Center
09:38AM 33.6334 -118.2847 90° East  Level FlightAware Approximate
09:38AM 33.6397 -118.3022 104° East 377 434 14,600  Level Los Angeles Center
09:39AM 33.6569 -118.1778 81° East 395 455 16,900 2,040 Climbing Los Angeles Center
09:40AM 33.7406 -118.0933 40° Northeast 404 465 18,800 1,920 Climbing Los Angeles Center
09:41AM 33.8322 -118.0119 36° Northeast 413 475 20,900 1,680 Climbing Los Angeles Center
09:42AM 33.9083 -117.9428 37° Northeast 425 489 22,300 1,800 Climbing Los Angeles Center
09:43AM 34.0464 -117.8164 37° Northeast 447 514 24,700 1,920 Climbing Los Angeles Center
09:44AM 34.1400 -117.7119 43° Northeast 461 531 26,300 1,560 Climbing Los Angeles Center
09:45AM 34.2261 -117.5925 49° Northeast 472 543 27,900 1,440 Climbing Los Angeles Center
09:46AM 34.3133 -117.4725 49° Northeast 475 547 29,300 1,440 Climbing Los Angeles Center
09:47AM 34.3933 -117.3644 48° Northeast 478 550 30,900 1,560 Climbing Los Angeles Center
09:48AM 34.4956 -117.2211 49° Northeast 474 545 32,500 1,500 Climbing Los Angeles Center
09:49AM 34.5817 -117.1017 49° Northeast 474 545 34,000 1,200 Climbing Los Angeles Center
09:50AM 34.6681 -116.9833 48° Northeast 472 543 35,000 480 Climbing Los Angeles Center
09:51AM 34.7539 -116.8631 49° Northeast 474 545 35,000  Level Los Angeles Center
09:52AM 34.8397 -116.7433 49° Northeast 474 545 35,000  Level Los Angeles Center
09:53AM 34.9269 -116.6236 48° Northeast 475 547 35,000  Level Los Angeles Center
09:54AM 35.0339 -116.4833 47° Northeast 473 544 35,000  Level Los Angeles Center
09:55AM 35.1258 -116.3681 46° Northeast 475 547 35,000  Level Los Angeles Center
09:56AM 35.2203 -116.2525 45° Northeast 480 552 35,000  Level Los Angeles Center
09:57AM 35.3100 -116.1364 47° Northeast 476 548 35,000  Level Los Angeles Center
09:58AM 35.4019 -116.0228 45° Northeast 472 543 35,000  Level Los Angeles Center
09:59AM 35.4939 -115.9072 46° Northeast 473 544 35,000  Level Los Angeles Center
10:00AM 35.6022 -115.7733 45° Northeast 463 533 35,000  Level Los Angeles Center
10:01AM 35.6931 -115.6581 46° Northeast 466 536 35,000  Level Los Angeles Center
10:02AM 35.7833 -115.5419 46° Northeast 470 541 35,000  Level Los Angeles Center
10:03AM 35.8736 -115.4256 46° Northeast 472 543 35,000  Level Los Angeles Center
10:04AM 35.9639 -115.3092 46° Northeast 473 544 35,000  Level Los Angeles Center
10:05AM 36.0525 -115.1914 47° Northeast 470 541 35,000  Level Los Angeles Center
10:06AM 36.1236 -115.0164 63° Northeast 481 554 35,000  Level Los Angeles Center
10:08AM 36.1694 -114.8622 70° East 481 554 35,000  Level Los Angeles Center
10:09AM 36.2167 -114.7097 69° East 477 549 35,000  Level Los Angeles Center
10:10AM 36.2636 -114.5558 69° East 480 552 35,000  Level Los Angeles Center
10:11AM 36.3111 -114.4017 69° East 480 552 35,000  Level Los Angeles Center
10:12AM 36.3575 -114.2475 69° East 479 551 35,000  Level Los Angeles Center
10:13AM 36.4050 -114.0922 69° East 482 555 35,000  Level Los Angeles Center
10:14AM 36.4706 -113.9125 66° East 478 550 35,000  Level Los Angeles Center
10:15AM 36.5242 -113.7561 67° East 478 550 35,000  Level Los Angeles Center
10:16AM 36.5764 -113.6056 67° East 477 549 35,000  Level Los Angeles Center
10:17AM 36.6269 -113.4531 68° East 478 550 35,000  Level Los Angeles Center
10:18AM 36.6789 -113.3017 67° East 478 550 35,000 240 Level Los Angeles Center
10:19AM 36.7300 -113.1511 67° East 476 548 35,500 720 Climbing Los Angeles Center
10:20AM 36.7814 -113.0003 67° East 476 548 36,500 720 Climbing Los Angeles Center
10:21AM 36.8431 -112.8189 67° East 477 549 37,000 240 Climbing Los Angeles Center
10:22AM 36.8936 -112.6689 67° East 474 545 37,000  Level Los Angeles Center
10:23AM 36.9439 -112.5211 67° East 468 539 37,000  Level Los Angeles Center
10:24AM 36.9933 -112.3708 68° East 471 542 37,000  Level Los Angeles Center
10:25AM 37.0433 -112.2203 67° East 473 544 37,000  Level Los Angeles Center
10:26AM 37.0931 -112.0700 67° East 472 543 37,000  Level Los Angeles Center
10:26AM 37.1131 -112.0097 67° East 473 544 37,000  Level Denver Center
10:27AM 37.1531 -111.8894 67° East 471 542 37,000  Level Los Angeles Center
10:27AM 37.1636 -111.8586 67° East 473 544 37,000  Level Denver Center
10:29AM 37.2136 -111.7056 68° East 476 548 37,000  Level Denver Center
10:30AM 37.2714 -111.5253 68° East 473 544 37,000  Level Denver Center
10:31AM 37.3300 -111.3422 68° East 472 543 37,000  Level Denver Center
10:32AM 37.3775 -111.1892 69° East 474 545 37,000  Level Denver Center
10:33AM 37.4264 -111.0344 68° East 477 549 37,000  Level Denver Center
10:34AM 37.4758 -110.8800 68° East 478 550 37,000  Level Denver Center
10:35AM 37.5250 -110.7264 68° East 475 547 37,000  Level Denver Center
10:36AM 37.5758 -110.5747 67° East 473 544 37,000  Level Denver Center
10:37AM 37.6364 -110.4128 65° Northeast 471 542 37,000  Level Denver Center
10:38AM 37.6975 -110.2442 65° Northeast 474 545 37,000  Level Denver Center
10:39AM 37.7494 -110.0997 66° East 471 542 37,000  Level Denver Center
10:40AM 37.8094 -109.9297 66° East 473 544 37,000  Level Denver Center
10:41AM 37.8611 -109.7850 66° East 470 541 37,000  Level Denver Center
10:42AM 37.9217 -109.6161 66° East 472 543 37,000  Level Denver Center
10:43AM 37.9717 -109.4717 66° East 468 539 37,000  Level Denver Center
10:44AM 38.0306 -109.3031 66° East 469 540 37,000  Level Denver Center
10:45AM 38.0786 -109.1656 66° East 467 537 37,000  Level Denver Center
10:46AM 38.1364 -108.9953 67° East 469 540 37,000  Level Denver Center
10:47AM 38.1867 -108.8528 66° East 464 534 37,000  Level Denver Center
10:48AM 38.2464 -108.6803 66° East 474 545 37,000  Level Denver Center
10:49AM 38.2961 -108.5339 67° East 474 545 37,000  Level Denver Center
10:50AM 38.3361 -108.4153 67° East 463 533 37,000 -900 Level Denver Center
10:51AM 38.3981 -108.2297 67° East 450 518 35,200 -960 Descending Denver Center
10:52AM 38.4525 -108.0658 67° East 450 518 35,000 -660 Descending Denver Center
10:53AM 38.5003 -107.9233 67° East 455 524 33,900 -1,020 Descending Denver Center
10:54AM 38.5567 -107.7522 67° East 467 537 33,000 -480 Descending Denver Center
10:55AM 38.6111 -107.6072 64° Northeast 472 543 33,000  Level Denver Center
10:56AM 38.6767 -107.4403 63° Northeast 471 542 33,000  Level Denver Center
10:58AM 38.7303 -107.2969 64° Northeast 468 539 33,000  Level Denver Center
10:59AM 38.7836 -107.1556 64° Northeast 474 545 33,000  Level Denver Center
11:00AM 38.8514 -106.9750 64° Northeast 473 544 33,000  Level Denver Center
11:01AM 38.9122 -106.8128 64° Northeast 474 545 33,000  Level Denver Center
11:02AM 38.9658 -106.6672 65° Northeast 473 544 33,000 -900 Level Denver Center
11:03AM 39.0283 -106.4978 65° Northeast 471 542 31,200 -1,980 Descending Denver Center
11:04AM 39.0806 -106.3558 65° Northeast 463 533 29,000 -2,040 Descending Denver Center
11:05AM 39.1289 -106.2233 65° Northeast 437 503 27,000 -2,040 Descending Denver Center
11:06AM 39.1817 -106.0747 65° Northeast 410 472 24,900 -2,040 Descending Denver Center
11:07AM 39.2267 -105.9494 65° Northeast 391 450 22,800 -1,980 Descending Denver Center
11:08AM 39.2703 -105.8297 65° Northeast 373 429 20,900 -1,800 Descending Denver Center
11:09AM 39.3119 -105.7131 65° Northeast 361 415 19,200 -1,440 Descending Denver Center
11:10AM 39.3553 -105.5914 65° Northeast 370 426 18,000 -540 Descending Denver Center
11:11AM 39.3947 -105.4667 68° East 349 402 18,100 -600 Climbing Denver Center
11:12AM 39.4011 -105.3578 86° East 310 357 16,800 -1,260 Descending Denver Center
11:13AM 39.4058 -105.2386 87° East 308 354 15,500 -1,260 Descending Denver Center
11:14AM 39.4108 -105.1306 87° East 305 351 14,200 -1,020 Descending Denver Center
11:15AM 39.4147 -105.0231 87° East 282 325 13,400 -600 Descending Denver Center
11:16AM 39.4194 -104.9350 86° East 253 291 13,000 -600 Descending Denver Center
11:17AM 39.4394 -104.8450 74° East 244 281 12,200 -900 Descending Denver Center
11:18AM 39.4906 -104.7939 38° Northeast 232 267 11,200 -780 Descending Denver Center
11:19AM 39.5444 -104.7472 34° Northeast 234 269 10,600 -600 Descending Denver Center
11:20AM 39.6017 -104.6969 34° Northeast 232 267 10,000 -720 Descending Denver Center
11:21AM 39.6589 -104.6611 26° Northeast 227 261 9,200 -780 Descending Denver Center